sensor_id;sensor_type;location;lat;lon;timestamp;pressure;altitude;pressure_sealevel;temperature;humidity
57234;BME280;43090;52.604;13.318;2024-01-10T00:25:20;102908.84;;;-8.43;86.04
57234;BME280;43090;52.604;13.318;2024-01-10T00:28:20;102895.47;;;-8.31;86.51
57234;BME280;43090;52.604;13.318;2024-01-10T00:31:08;102887.88;;;-8.27;85.34
57234;BME280;43090;52.604;13.318;2024-01-10T00:33:57;102869.03;;;-8.21;85.39
57234;BME280;43090;52.604;13.318;2024-01-10T00:40:27;102903.31;;;-8.09;85.10
57234;BME280;43090;52.604;13.318;2024-01-10T00:42:56;102888.53;;;-8.10;85.17
57234;BME280;43090;52.604;13.318;2024-01-10T00:45:54;102865.41;;;-8.04;84.85
57234;BME280;43090;52.604;13.318;2024-01-10T00:48:23;102850.25;;;-8.14;84.23
57234;BME280;43090;52.604;13.318;2024-01-10T00:50:57;102862.03;;;-8.01;83.62
57234;BME280;43090;52.604;13.318;2024-01-10T00:53:26;102873.97;;;-7.83;83.33
57234;BME280;43090;52.604;13.318;2024-01-10T00:56:09;102858.97;;;-8.13;83.87
57234;BME280;43090;52.604;13.318;2024-01-10T00:59:02;102850.75;;;-8.01;83.43
57234;BME280;43090;52.604;13.318;2024-01-10T01:05:03;102835.28;;;-8.42;84.57
57234;BME280;43090;52.604;13.318;2024-01-10T01:10:53;102867.31;;;-8.42;85.15
57234;BME280;43090;52.604;13.318;2024-01-10T01:13:45;102894.66;;;-8.09;85.78
57234;BME280;43090;52.604;13.318;2024-01-10T01:16:12;102858.31;;;-8.08;84.79
57234;BME280;43090;52.604;13.318;2024-01-10T01:19:02;102893.56;;;-7.93;84.76
57234;BME280;43090;52.604;13.318;2024-01-10T01:28:43;102886.97;;;-8.27;86.13
57234;BME280;43090;52.604;13.318;2024-01-10T01:31:26;102881.28;;;-8.18;85.85
57234;BME280;43090;52.604;13.318;2024-01-10T01:34:09;102840.97;;;-8.72;86.90
57234;BME280;43090;52.604;13.318;2024-01-10T01:36:42;102833.59;;;-8.40;86.31
57234;BME280;43090;52.604;13.318;2024-01-10T01:43:22;102846.06;;;-8.54;85.72
57234;BME280;43090;52.604;13.318;2024-01-10T01:45:56;102855.44;;;-8.98;87.12
57234;BME280;43090;52.604;13.318;2024-01-10T01:48:40;102841.94;;;-8.70;87.24
57234;BME280;43090;52.604;13.318;2024-01-10T01:51:30;102844.00;;;-8.40;86.50
57234;BME280;43090;52.604;13.318;2024-01-10T01:54:09;102834.63;;;-8.37;85.32
57234;BME280;43090;52.604;13.318;2024-01-10T01:56:47;102849.66;;;-8.29;85.24
57234;BME280;43090;52.604;13.318;2024-01-10T01:59:29;102840.69;;;-8.15;84.64
57234;BME280;43090;52.604;13.318;2024-01-10T02:02:16;102826.38;;;-8.70;85.29
57234;BME280;43090;52.604;13.318;2024-01-10T02:04:58;102848.00;;;-9.10;87.19
57234;BME280;43090;52.604;13.318;2024-01-10T02:07:44;102838.88;;;-9.02;88.33
57234;BME280;43090;52.604;13.318;2024-01-10T02:10:34;102839.09;;;-9.36;90.46
57234;BME280;43090;52.604;13.318;2024-01-10T02:13:15;102834.38;;;-9.45;90.90
57234;BME280;43090;52.604;13.318;2024-01-10T02:16:14;102873.13;;;-8.90;89.74
57234;BME280;43090;52.604;13.318;2024-01-10T02:19:17;102847.56;;;-8.80;88.72
57234;BME280;43090;52.604;13.318;2024-01-10T02:21:57;102850.13;;;-9.01;88.35
57234;BME280;43090;52.604;13.318;2024-01-10T02:24:58;102837.09;;;-9.23;88.75
57234;BME280;43090;52.604;13.318;2024-01-10T02:27:39;102860.78;;;-9.15;89.23
57234;BME280;43090;52.604;13.318;2024-01-10T02:56:34;102819.84;;;-7.94;80.68
57234;BME280;43090;52.604;13.318;2024-01-10T02:59:11;102859.69;;;-8.39;84.16
57234;BME280;43090;52.604;13.318;2024-01-10T03:01:46;102826.00;;;-8.99;85.90
57234;BME280;43090;52.604;13.318;2024-01-10T03:11:47;102816.19;;;-8.85;86.93
57234;BME280;43090;52.604;13.318;2024-01-10T03:21:54;102852.03;;;-8.97;88.50
57234;BME280;43090;52.604;13.318;2024-01-10T03:24:38;102798.09;;;-9.05;88.01
57234;BME280;43090;52.604;13.318;2024-01-10T03:34:58;102864.66;;;-8.43;85.62
57234;BME280;43090;52.604;13.318;2024-01-10T03:38:02;102835.56;;;-8.57;85.27
57234;BME280;43090;52.604;13.318;2024-01-10T03:45:15;102825.78;;;-8.63;85.76
57234;BME280;43090;52.604;13.318;2024-01-10T03:48:26;102820.72;;;-8.81;85.14
57234;BME280;43090;52.604;13.318;2024-01-10T03:54:47;102811.31;;;-8.98;87.18
57234;BME280;43090;52.604;13.318;2024-01-10T04:08:56;102792.72;;;-8.67;85.23
57234;BME280;43090;52.604;13.318;2024-01-10T04:11:43;102789.94;;;-8.72;85.11
57234;BME280;43090;52.604;13.318;2024-01-10T04:25:28;102779.66;;;-9.11;86.87
57234;BME280;43090;52.604;13.318;2024-01-10T04:27:58;102814.25;;;-8.48;85.34
57234;BME280;43090;52.604;13.318;2024-01-10T04:30:28;102791.00;;;-8.45;84.55
57234;BME280;43090;52.604;13.318;2024-01-10T04:36:33;102776.91;;;-9.35;86.61
57234;BME280;43090;52.604;13.318;2024-01-10T04:39:23;102779.38;;;-9.17;86.61
57234;BME280;43090;52.604;13.318;2024-01-10T04:42:13;102809.59;;;-8.57;85.43
57234;BME280;43090;52.604;13.318;2024-01-10T04:48:10;102798.34;;;-8.77;84.60
57234;BME280;43090;52.604;13.318;2024-01-10T04:50:46;102787.53;;;-8.67;84.09
57234;BME280;43090;52.604;13.318;2024-01-10T04:53:13;102782.72;;;-8.58;83.98
57234;BME280;43090;52.604;13.318;2024-01-10T04:59:37;102831.22;;;-8.35;83.93
57234;BME280;43090;52.604;13.318;2024-01-10T05:06:01;102788.91;;;-8.96;83.71
57234;BME280;43090;52.604;13.318;2024-01-10T05:08:52;102793.41;;;-8.92;84.06
57234;BME280;43090;52.604;13.318;2024-01-10T05:19:12;102797.59;;;-9.36;86.77
57234;BME280;43090;52.604;13.318;2024-01-10T05:21:58;102817.41;;;-9.57;88.68
57234;BME280;43090;52.604;13.318;2024-01-10T05:24:44;102821.72;;;-9.57;89.46
57234;BME280;43090;52.604;13.318;2024-01-10T05:27:39;102829.66;;;-9.15;88.53
57234;BME280;43090;52.604;13.318;2024-01-10T05:38:53;102824.53;;;-9.33;87.12
57234;BME280;43090;52.604;13.318;2024-01-10T05:42:03;102786.22;;;-9.19;86.82
57234;BME280;43090;52.604;13.318;2024-01-10T05:44:30;102780.16;;;-8.98;86.06
57234;BME280;43090;52.604;13.318;2024-01-10T05:54:13;102816.44;;;-9.00;85.30
57234;BME280;43090;52.604;13.318;2024-01-10T05:56:43;102818.75;;;-9.27;86.96
57234;BME280;43090;52.604;13.318;2024-01-10T06:04:24;102827.25;;;-8.69;84.98
57234;BME280;43090;52.604;13.318;2024-01-10T06:07:07;102823.78;;;-9.11;85.08
57234;BME280;43090;52.604;13.318;2024-01-10T06:09:58;102821.91;;;-9.52;87.75
57234;BME280;43090;52.604;13.318;2024-01-10T06:13:01;102767.22;;;-9.39;87.85
57234;BME280;43090;52.604;13.318;2024-01-10T06:15:37;102802.00;;;-8.93;86.31
57234;BME280;43090;52.604;13.318;2024-01-10T06:18:27;102815.66;;;-8.78;85.69
57234;BME280;43090;52.604;13.318;2024-01-10T06:21:15;102774.41;;;-9.12;85.45
57234;BME280;43090;52.604;13.318;2024-01-10T06:41:55;102766.41;;;-9.95;89.83
57234;BME280;43090;52.604;13.318;2024-01-10T06:48:43;102814.38;;;-9.28;87.95
57234;BME280;43090;52.604;13.318;2024-01-10T06:51:12;102787.41;;;-9.32;87.15
57234;BME280;43090;52.604;13.318;2024-01-10T06:53:42;102757.75;;;-9.17;86.59
57234;BME280;43090;52.604;13.318;2024-01-10T06:56:36;102755.78;;;-9.23;86.78
57234;BME280;43090;52.604;13.318;2024-01-10T06:59:05;102752.63;;;-9.35;86.42
57234;BME280;43090;52.604;13.318;2024-01-10T08:02:34;102772.13;;;-9.05;86.01
57234;BME280;43090;52.604;13.318;2024-01-10T08:05:49;102797.59;;;-8.75;86.28
57234;BME280;43090;52.604;13.318;2024-01-10T08:08:51;102764.75;;;-8.95;85.99
57234;BME280;43090;52.604;13.318;2024-01-10T08:17:15;102763.06;;;-8.93;85.46
57234;BME280;43090;52.604;13.318;2024-01-10T08:19:53;102767.06;;;-8.80;83.96
57234;BME280;43090;52.604;13.318;2024-01-10T08:22:33;102775.34;;;-8.89;84.53
57234;BME280;43090;52.604;13.318;2024-01-10T08:25:04;102764.81;;;-8.73;83.75
57234;BME280;43090;52.604;13.318;2024-01-10T08:42:45;102788.03;;;-8.97;84.74
57234;BME280;43090;52.604;13.318;2024-01-10T09:03:27;102793.84;;;-8.60;85.74
57234;BME280;43090;52.604;13.318;2024-01-10T09:06:12;102788.66;;;-8.81;86.20
57234;BME280;43090;52.604;13.318;2024-01-10T09:12:51;102794.13;;;-8.54;84.93
57234;BME280;43090;52.604;13.318;2024-01-10T09:19:54;102836.19;;;-7.96;85.11
57234;BME280;43090;52.604;13.318;2024-01-10T09:30:49;102810.03;;;-7.78;82.50
57234;BME280;43090;52.604;13.318;2024-01-10T09:49:04;102780.94;;;-7.44;78.50
57234;BME280;43090;52.604;13.318;2024-01-10T09:51:48;102810.06;;;-7.06;78.68
57234;BME280;43090;52.604;13.318;2024-01-10T09:54:16;102800.44;;;-6.82;78.51
57234;BME280;43090;52.604;13.318;2024-01-10T09:56:45;102804.81;;;-6.81;77.80
57234;BME280;43090;52.604;13.318;2024-01-10T09:59:12;102779.31;;;-7.16;76.71
57234;BME280;43090;52.604;13.318;2024-01-10T10:02:06;102778.91;;;-7.03;76.94
57234;BME280;43090;52.604;13.318;2024-01-10T10:04:35;102781.31;;;-6.83;75.68
57234;BME280;43090;52.604;13.318;2024-01-10T10:07:22;102815.56;;;-6.45;75.75
57234;BME280;43090;52.604;13.318;2024-01-10T10:09:49;102769.84;;;-6.62;76.08
57234;BME280;43090;52.604;13.318;2024-01-10T10:12:55;102814.22;;;-6.05;75.71
57234;BME280;43090;52.604;13.318;2024-01-10T10:16:32;102775.72;;;-6.13;77.22
57234;BME280;43090;52.604;13.318;2024-01-10T10:19:05;102775.84;;;-6.09;75.28
57234;BME280;43090;52.604;13.318;2024-01-10T10:21:35;102765.72;;;-6.28;74.34
57234;BME280;43090;52.604;13.318;2024-01-10T10:24:01;102760.72;;;-5.90;73.03
57234;BME280;43090;52.604;13.318;2024-01-10T10:34:02;102748.56;;;-5.59;72.42
57234;BME280;43090;52.604;13.318;2024-01-10T10:36:32;102744.78;;;-5.71;70.82
57234;BME280;43090;52.604;13.318;2024-01-10T10:39:02;102763.00;;;-5.40;69.10
57234;BME280;43090;52.604;13.318;2024-01-10T10:41:30;102780.25;;;-5.47;71.04
57234;BME280;43090;52.604;13.318;2024-01-10T10:47:28;102734.53;;;-5.31;69.03
57234;BME280;43090;52.604;13.318;2024-01-10T10:52:56;102745.16;;;-4.91;67.33
57234;BME280;43090;52.604;13.318;2024-01-10T10:55:32;102756.00;;;-4.76;67.40
57234;BME280;43090;52.604;13.318;2024-01-10T10:58:01;102749.06;;;-5.09;67.49
57234;BME280;43090;52.604;13.318;2024-01-10T11:00:37;102784.97;;;-4.66;68.37
57234;BME280;43090;52.604;13.318;2024-01-10T11:06:18;102771.00;;;-4.67;66.07
57234;BME280;43090;52.604;13.318;2024-01-10T11:20:24;102756.28;;;-4.27;63.12
57234;BME280;43090;52.604;13.318;2024-01-10T11:23:22;102762.06;;;-4.02;62.54
57234;BME280;43090;52.604;13.318;2024-01-10T11:25:57;102737.00;;;-4.30;65.82
57234;BME280;43090;52.604;13.318;2024-01-10T11:28:30;102756.53;;;-4.14;64.90
57234;BME280;43090;52.604;13.318;2024-01-10T11:30:58;102769.19;;;-3.95;62.66
57234;BME280;43090;52.604;13.318;2024-01-10T11:33:40;102762.97;;;-4.00;60.97
57234;BME280;43090;52.604;13.318;2024-01-10T11:36:19;102740.00;;;-4.13;60.36
57234;BME280;43090;52.604;13.318;2024-01-10T11:41:23;102729.22;;;-4.27;64.42
57234;BME280;43090;52.604;13.318;2024-01-10T11:46:52;102730.09;;;-3.87;57.70
57234;BME280;43090;52.604;13.318;2024-01-10T11:49:20;102757.75;;;-4.00;57.87
57234;BME280;43090;52.604;13.318;2024-01-10T11:51:55;102737.97;;;-3.86;58.24
57234;BME280;43090;52.604;13.318;2024-01-10T11:54:44;102758.47;;;-3.66;58.81
57234;BME280;43090;52.604;13.318;2024-01-10T11:57:25;102731.16;;;-3.77;60.13
57234;BME280;43090;52.604;13.318;2024-01-10T11:59:56;102721.94;;;-4.01;62.18
57234;BME280;43090;52.604;13.318;2024-01-10T12:02:23;102711.34;;;-4.09;57.25
57234;BME280;43090;52.604;13.318;2024-01-10T12:05:00;102729.50;;;-3.74;57.13
57234;BME280;43090;52.604;13.318;2024-01-10T12:07:28;102707.63;;;-3.76;55.93
57234;BME280;43090;52.604;13.318;2024-01-10T12:14:12;102724.84;;;-3.43;58.33
57234;BME280;43090;52.604;13.318;2024-01-10T12:17:27;102691.19;;;-3.23;55.71
57234;BME280;43090;52.604;13.318;2024-01-10T12:19:57;102689.97;;;-3.40;56.43
57234;BME280;43090;52.604;13.318;2024-01-10T12:22:28;102682.72;;;-3.55;56.92
57234;BME280;43090;52.604;13.318;2024-01-10T12:28:57;102710.53;;;-3.14;54.22
57234;BME280;43090;52.604;13.318;2024-01-10T12:31:28;102668.75;;;-3.07;54.38
57234;BME280;43090;52.604;13.318;2024-01-10T12:33:55;102707.47;;;-2.87;54.09
57234;BME280;43090;52.604;13.318;2024-01-10T12:36:36;102671.22;;;-3.16;53.73
57234;BME280;43090;52.604;13.318;2024-01-10T12:39:06;102684.25;;;-3.18;53.99
57234;BME280;43090;52.604;13.318;2024-01-10T12:41:44;102704.56;;;-2.49;53.41
57234;BME280;43090;52.604;13.318;2024-01-10T12:44:12;102665.38;;;-2.96;55.09
57234;BME280;43090;52.604;13.318;2024-01-10T12:46:49;102694.09;;;-2.49;55.22
57234;BME280;43090;52.604;13.318;2024-01-10T12:49:22;102685.97;;;-2.66;55.35
57234;BME280;43090;52.604;13.318;2024-01-10T12:52:04;102660.38;;;-2.82;56.55
57234;BME280;43090;52.604;13.318;2024-01-10T12:54:40;102663.13;;;-2.75;57.08
57234;BME280;43090;52.604;13.318;2024-01-10T12:57:07;102659.66;;;-2.74;59.85
57234;BME280;43090;52.604;13.318;2024-01-10T12:59:34;102649.66;;;-2.96;57.24
57234;BME280;43090;52.604;13.318;2024-01-10T13:02:03;102655.25;;;-2.75;53.41
57234;BME280;43090;52.604;13.318;2024-01-10T13:04:30;102652.53;;;-2.81;56.31
57234;BME280;43090;52.604;13.318;2024-01-10T13:07:00;102655.63;;;-2.50;53.47
57234;BME280;43090;52.604;13.318;2024-01-10T13:09:34;102676.91;;;-2.28;56.41
57234;BME280;43090;52.604;13.318;2024-01-10T13:12:06;102647.81;;;-2.45;55.42
57234;BME280;43090;52.604;13.318;2024-01-10T13:14:36;102654.81;;;-2.44;54.48
57234;BME280;43090;52.604;13.318;2024-01-10T13:17:03;102662.22;;;-2.12;53.53
57234;BME280;43090;52.604;13.318;2024-01-10T13:19:32;102664.66;;;-2.26;54.66
57234;BME280;43090;52.604;13.318;2024-01-10T13:21:59;102668.47;;;-2.03;55.10
57234;BME280;43090;52.604;13.318;2024-01-10T13:25:40;102646.69;;;-2.64;53.53
57234;BME280;43090;52.604;13.318;2024-01-10T13:45:32;102659.94;;;-2.54;55.36
57234;BME280;43090;52.604;13.318;2024-01-10T13:48:25;102683.84;;;-2.30;57.00
57234;BME280;43090;52.604;13.318;2024-01-10T13:51:46;102621.59;;;-2.44;55.74
57234;BME280;43090;52.604;13.318;2024-01-10T13:54:36;102632.19;;;-2.35;52.66
57234;BME280;43090;52.604;13.318;2024-01-10T15:47:32;102651.91;;;-4.14;69.24
57234;BME280;43090;52.604;13.318;2024-01-10T15:49:59;102638.75;;;-4.19;69.29
57234;BME280;43090;52.604;13.318;2024-01-10T15:56:17;102638.97;;;-4.49;71.23
57234;BME280;43090;52.604;13.318;2024-01-10T15:58:47;102652.25;;;-4.40;71.27
57234;BME280;43090;52.604;13.318;2024-01-10T16:01:14;102667.97;;;-4.39;71.72
57234;BME280;43090;52.604;13.318;2024-01-10T16:03:41;102630.91;;;-4.60;71.79
57234;BME280;43090;52.604;13.318;2024-01-10T16:06:08;102673.19;;;-4.39;72.25
57234;BME280;43090;52.604;13.318;2024-01-10T16:08:40;102637.00;;;-4.60;72.20
57234;BME280;43090;52.604;13.318;2024-01-10T16:11:06;102641.50;;;-4.53;72.50
57234;BME280;43090;52.604;13.318;2024-01-10T16:17:53;102675.19;;;-4.66;75.36
57234;BME280;43090;52.604;13.318;2024-01-10T16:20:28;102638.09;;;-4.88;75.17
57234;BME280;43090;52.604;13.318;2024-01-10T16:27:21;102644.09;;;-4.92;75.48
57234;BME280;43090;52.604;13.318;2024-01-10T16:30:22;102640.44;;;-4.99;75.86
57234;BME280;43090;52.604;13.318;2024-01-10T16:43:14;102654.91;;;-5.48;79.86
57234;BME280;43090;52.604;13.318;2024-01-10T16:45:44;102663.97;;;-5.34;81.06
57234;BME280;43090;52.604;13.318;2024-01-10T16:48:18;102676.72;;;-5.11;80.60
57234;BME280;43090;52.604;13.318;2024-01-10T16:50:54;102653.06;;;-5.18;79.90
57234;BME280;43090;52.604;13.318;2024-01-10T16:53:31;102679.53;;;-5.04;79.47
57234;BME280;43090;52.604;13.318;2024-01-10T16:56:02;102654.88;;;-5.13;79.38
57234;BME280;43090;52.604;13.318;2024-01-10T16:58:30;102668.00;;;-5.12;79.77
57234;BME280;43090;52.604;13.318;2024-01-10T17:00:56;102650.19;;;-5.28;80.38
57234;BME280;43090;52.604;13.318;2024-01-10T17:03:27;102627.28;;;-5.39;80.61
57234;BME280;43090;52.604;13.318;2024-01-10T17:06:00;102609.53;;;-5.52;81.48
57234;BME280;43090;52.604;13.318;2024-01-10T17:08:54;102610.63;;;-5.44;80.65
57234;BME280;43090;52.604;13.318;2024-01-10T17:11:23;102615.84;;;-5.44;80.70
57234;BME280;43090;52.604;13.318;2024-01-10T17:13:52;102600.88;;;-5.51;81.30
57234;BME280;43090;52.604;13.318;2024-01-10T17:16:20;102623.78;;;-5.41;81.40
57234;BME280;43090;52.604;13.318;2024-01-10T17:22:36;102630.78;;;-5.72;82.17
57234;BME280;43090;52.604;13.318;2024-01-10T17:25:07;102629.56;;;-5.53;82.04
57234;BME280;43090;52.604;13.318;2024-01-10T17:27:38;102597.78;;;-5.70;82.19
57234;BME280;43090;52.604;13.318;2024-01-10T17:30:07;102623.13;;;-5.65;82.93
57234;BME280;43090;52.604;13.318;2024-01-10T17:32:36;102637.03;;;-6.00;85.10
57234;BME280;43090;52.604;13.318;2024-01-10T17:35:06;102631.00;;;-5.96;87.23
57234;BME280;43090;52.604;13.318;2024-01-10T17:45:09;102626.44;;;-5.73;84.59
57234;BME280;43090;52.604;13.318;2024-01-10T17:47:38;102605.63;;;-5.70;84.36
57234;BME280;43090;52.604;13.318;2024-01-10T17:50:10;102616.31;;;-5.60;84.05
57234;BME280;43090;52.604;13.318;2024-01-10T17:52:39;102593.47;;;-5.68;83.69
57234;BME280;43090;52.604;13.318;2024-01-10T17:58:21;102603.91;;;-5.68;83.57
57234;BME280;43090;52.604;13.318;2024-01-10T18:00:47;102615.50;;;-5.58;83.73
57234;BME280;43090;52.604;13.318;2024-01-10T18:03:14;102616.47;;;-5.54;83.41
57234;BME280;43090;52.604;13.318;2024-01-10T18:05:41;102612.19;;;-5.50;83.02
57234;BME280;43090;52.604;13.318;2024-01-10T18:08:09;102595.44;;;-5.60;83.14
57234;BME280;43090;52.604;13.318;2024-01-10T18:10:36;102597.72;;;-5.73;83.28
57234;BME280;43090;52.604;13.318;2024-01-10T18:13:03;102587.63;;;-5.92;83.50
57234;BME280;43090;52.604;13.318;2024-01-10T18:15:34;102567.97;;;-6.13;84.52
57234;BME280;43090;52.604;13.318;2024-01-10T18:18:01;102620.78;;;-6.22;86.67
57234;BME280;43090;52.604;13.318;2024-01-10T18:20:28;102621.34;;;-6.61;89.63
57234;BME280;43090;52.604;13.318;2024-01-10T18:22:55;102576.34;;;-6.55;89.52
57234;BME280;43090;52.604;13.318;2024-01-10T18:25:21;102626.81;;;-5.91;87.53
57234;BME280;43090;52.604;13.318;2024-01-10T18:27:48;102581.31;;;-6.02;86.53
57234;BME280;43090;52.604;13.318;2024-01-10T18:30:15;102598.19;;;-5.88;85.84
57234;BME280;43090;52.604;13.318;2024-01-10T18:32:49;102582.28;;;-5.98;85.41
57234;BME280;43090;52.604;13.318;2024-01-10T18:35:19;102585.25;;;-5.84;85.21
57234;BME280;43090;52.604;13.318;2024-01-10T18:37:50;102568.59;;;-5.90;84.91
57234;BME280;43090;52.604;13.318;2024-01-10T18:40:17;102602.00;;;-5.75;84.50
57234;BME280;43090;52.604;13.318;2024-01-10T18:42:43;102577.34;;;-5.86;84.88
57234;BME280;43090;52.604;13.318;2024-01-10T18:45:16;102574.63;;;-5.91;83.96
57234;BME280;43090;52.604;13.318;2024-01-10T18:48:01;102604.38;;;-5.84;84.34
57234;BME280;43090;52.604;13.318;2024-01-10T18:50:34;102585.47;;;-6.09;84.05
57234;BME280;43090;52.604;13.318;2024-01-10T18:53:06;102574.41;;;-6.91;86.00
57234;BME280;43090;52.604;13.318;2024-01-10T18:55:33;102625.53;;;-6.37;88.71
57234;BME280;43090;52.604;13.318;2024-01-10T18:58:02;102578.66;;;-6.36;86.89
57234;BME280;43090;52.604;13.318;2024-01-10T19:13:06;102625.91;;;-6.23;86.71
57234;BME280;43090;52.604;13.318;2024-01-10T22:11:32;102641.16;;;-7.74;88.78
57234;BME280;43090;52.604;13.318;2024-01-10T22:13:59;102646.56;;;-7.42;89.10
57234;BME280;43090;52.604;13.318;2024-01-10T22:16:32;102646.09;;;-7.03;87.53
57234;BME280;43090;52.604;13.318;2024-01-10T22:18:59;102642.84;;;-6.97;86.49
57234;BME280;43090;52.604;13.318;2024-01-10T22:21:26;102662.88;;;-6.94;86.51
57234;BME280;43090;52.604;13.318;2024-01-10T22:23:55;102642.66;;;-7.01;86.47
57234;BME280;43090;52.604;13.318;2024-01-10T22:26:39;102613.94;;;-7.05;85.94
57234;BME280;43090;52.604;13.318;2024-01-10T22:29:18;102617.56;;;-6.99;85.56
57234;BME280;43090;52.604;13.318;2024-01-10T22:32:10;102625.63;;;-6.92;85.42
57234;BME280;43090;52.604;13.318;2024-01-10T22:35:15;102619.84;;;-7.10;86.12
57234;BME280;43090;52.604;13.318;2024-01-10T22:37:54;102652.41;;;-7.23;86.59
57234;BME280;43090;52.604;13.318;2024-01-10T22:41:06;102655.81;;;-7.24;87.49
57234;BME280;43090;52.604;13.318;2024-01-10T22:43:43;102621.63;;;-7.61;88.30
57234;BME280;43090;52.604;13.318;2024-01-10T22:46:24;102625.53;;;-7.22;87.54
57234;BME280;43090;52.604;13.318;2024-01-10T22:49:21;102674.19;;;-6.94;87.52
57234;BME280;43090;52.604;13.318;2024-01-10T22:52:11;102647.84;;;-7.03;87.22
57234;BME280;43090;52.604;13.318;2024-01-10T22:55:01;102604.72;;;-7.22;86.91
57234;BME280;43090;52.604;13.318;2024-01-10T22:57:53;102607.44;;;-7.17;86.76
57234;BME280;43090;52.604;13.318;2024-01-10T23:00:50;102647.94;;;-6.73;86.18
57234;BME280;43090;52.604;13.318;2024-01-10T23:03:40;102594.63;;;-7.11;86.51
57234;BME280;43090;52.604;13.318;2024-01-10T23:06:32;102621.22;;;-6.94;86.53
57234;BME280;43090;52.604;13.318;2024-01-10T23:09:16;102622.06;;;-7.21;87.16
57234;BME280;43090;52.604;13.318;2024-01-10T23:12:17;102648.44;;;-6.84;87.13
57234;BME280;43090;52.604;13.318;2024-01-10T23:15:02;102633.38;;;-6.93;86.77
57234;BME280;43090;52.604;13.318;2024-01-10T23:17:50;102639.94;;;-7.83;89.89
57234;BME280;43090;52.604;13.318;2024-01-10T23:20:48;102613.16;;;-7.55;92.11
57234;BME280;43090;52.604;13.318;2024-01-10T23:23:50;102606.72;;;-7.41;90.83
57234;BME280;43090;52.604;13.318;2024-01-10T23:26:26;102614.41;;;-7.44;91.83
57234;BME280;43090;52.604;13.318;2024-01-10T23:29:11;102611.84;;;-7.42;90.96
57234;BME280;43090;52.604;13.318;2024-01-10T23:32:03;102598.25;;;-7.33;90.45
57234;BME280;43090;52.604;13.318;2024-01-10T23:34:55;102595.44;;;-7.40;90.74
57234;BME280;43090;52.604;13.318;2024-01-10T23:37:43;102609.66;;;-7.03;90.02
57234;BME280;43090;52.604;13.318;2024-01-10T23:40:49;102629.56;;;-7.05;90.55
57234;BME280;43090;52.604;13.318;2024-01-10T23:43:23;102562.31;;;-7.18;90.60
57234;BME280;43090;52.604;13.318;2024-01-10T23:46:45;102609.78;;;-6.71;89.86
57234;BME280;43090;52.604;13.318;2024-01-10T23:49:20;102557.34;;;-7.10;90.16
57234;BME280;43090;52.604;13.318;2024-01-10T23:52:14;102609.91;;;-6.95;90.11
57234;BME280;43090;52.604;13.318;2024-01-10T23:54:55;102587.16;;;-7.00;90.72
